Time;durP1;ratioP1;P1;durP2;ratioP2;P2;SDS_P1;SDS_P2;PMS_P1;PMS_P2;Temp;Humidity;BMP_temperature;BMP_pressure;BME280_temperature;BME280_humidity;BME280_pressure;Samples;Min_cycle;Max_cycle;Signal;HPM_P1;HPM_P2
2022/01/16 00:04:08;;;;;;;59.95;19.73;;;1.50;99.90;;;;;;4999528;28;20441;-84
2022/01/16 00:06:40;;;;;;;54.78;17.55;;;1.50;99.90;;;;;;4969310;28;20500;-84
2022/01/16 00:09:06;;;;;;;54.33;19.08;;;1.50;99.90;;;;;;5002458;28;20034;-84
2022/01/16 00:11:32;;;;;;;54.78;18.00;;;1.50;99.90;;;;;;5002420;28;20454;-84
2022/01/16 00:13:58;;;;;;;64.35;19.70;;;1.60;99.90;;;;;;4988426;28;20034;-84
2022/01/16 00:16:24;;;;;;;59.67;19.98;;;1.60;99.90;;;;;;5006809;28;20571;-84
2022/01/16 00:18:50;;;;;;;61.13;20.58;;;1.60;99.90;;;;;;4982952;28;20043;-84
2022/01/16 00:21:21;;;;;;;64.22;20.42;;;1.60;99.90;;;;;;4985884;28;20038;-84
2022/01/16 00:23:47;;;;;;;66.00;22.17;;;1.60;99.90;;;;;;5000351;28;20676;-84
2022/01/16 00:26:13;;;;;;;58.88;20.60;;;1.60;99.90;;;;;;4987447;28;20045;-84
2022/01/16 00:28:39;;;;;;;59.05;22.95;;;1.70;99.90;;;;;;4986048;28;20085;-84
2022/01/16 00:31:05;;;;;;;65.70;23.00;;;1.70;99.90;;;;;;4998791;28;20049;-84
2022/01/16 00:33:30;;;;;;;61.70;22.70;;;1.70;99.90;;;;;;4970910;28;20054;-84
2022/01/16 00:35:56;;;;;;;60.25;21.40;;;1.70;99.90;;;;;;4998993;28;20169;-84
2022/01/16 00:38:22;;;;;;;62.80;22.27;;;1.70;99.90;;;;;;4998997;28;20945;-85
2022/01/16 00:40:47;;;;;;;66.63;21.70;;;1.70;99.90;;;;;;4983658;28;20054;-84
2022/01/16 00:43:14;;;;;;;60.78;20.05;;;1.70;99.90;;;;;;5000415;28;20139;-85
2022/01/16 00:45:39;;;;;;;66.38;21.83;;;1.70;99.90;;;;;;4999059;28;20053;-85
2022/01/16 00:48:06;;;;;;;62.65;21.38;;;1.70;99.90;;;;;;5001086;28;20035;-85
2022/01/16 00:50:34;;;;;;;70.90;20.58;;;1.70;99.90;;;;;;4999393;28;20043;-84
2022/01/16 00:53:01;;;;;;;56.03;19.10;;;1.70;99.90;;;;;;5003369;28;20038;-85
2022/01/16 00:55:27;;;;;;;60.47;19.77;;;1.70;99.90;;;;;;4999577;28;20145;-85
2022/01/16 00:57:52;;;;;;;69.65;20.10;;;1.70;99.90;;;;;;5015781;28;20056;-85
2022/01/16 01:00:19;;;;;;;61.05;19.95;;;1.70;99.90;;;;;;5002230;28;20458;-85
2022/01/16 01:02:44;;;;;;;60.35;19.25;;;1.70;99.90;;;;;;4995038;28;20039;-85
2022/01/16 01:05:10;;;;;;;60.72;20.23;;;1.70;99.90;;;;;;5019032;28;20034;-85
2022/01/16 01:07:38;;;;;;;76.53;22.20;;;1.60;99.90;;;;;;5003771;28;20120;-85
2022/01/16 01:10:05;;;;;;;82.38;24.15;;;1.60;99.90;;;;;;4994548;28;20042;-84
2022/01/16 01:12:51;;;;;;;71.75;22.70;;;1.70;99.90;;;;;;4997302;28;20046;-85
2022/01/16 01:15:17;;;;;;;79.32;22.65;;;1.70;99.90;;;;;;4981002;28;20042;-84
2022/01/16 01:17:45;;;;;;;74.45;22.88;;;1.70;99.90;;;;;;4989668;28;20038;-85
2022/01/16 01:20:14;;;;;;;77.95;20.92;;;1.70;99.90;;;;;;4989242;28;20050;-84
2022/01/16 01:22:41;;;;;;;62.88;18.95;;;1.70;99.90;;;;;;4986067;28;20550;-84
2022/01/16 01:25:08;;;;;;;58.88;18.13;;;1.70;99.90;;;;;;4990243;28;20034;-85
2022/01/16 01:27:35;;;;;;;62.92;19.10;;;1.70;99.90;;;;;;5006780;28;20137;-85
2022/01/16 01:30:05;;;;;;;67.13;21.13;;;1.70;99.90;;;;;;5019773;28;20046;-85
2022/01/16 01:32:33;;;;;;;74.30;21.25;;;1.70;99.90;;;;;;5014805;28;20106;-85
2022/01/16 01:34:59;;;;;;;80.68;22.92;;;1.70;99.90;;;;;;4987369;28;20034;-85
2022/01/16 01:37:25;;;;;;;74.18;20.80;;;1.80;99.90;;;;;;4987496;28;20038;-85
2022/01/16 01:39:50;;;;;;;88.55;22.73;;;1.70;99.90;;;;;;5014668;28;20057;-84
2022/01/16 01:42:17;;;;;;;74.80;20.60;;;1.80;99.90;;;;;;4989295;28;20042;-84
2022/01/16 01:52:57;;;;;;;89.22;22.17;;;1.80;99.90;;;;;;5017485;28;20055;-85
2022/01/16 01:55:24;;;;;;;103.75;26.23;;;1.80;99.90;;;;;;5002532;28;20085;-85
2022/01/16 01:57:49;;;;;;;112.15;26.80;;;1.90;99.90;;;;;;4994317;28;20550;-85
2022/01/16 02:00:22;;;;;;;99.35;23.00;;;1.90;99.90;;;;;;4999872;28;20501;-85
2022/01/16 02:05:34;;;;;;;113.25;22.60;;;1.90;99.90;;;;;;4997186;28;20040;-85
2022/01/16 02:08:00;;;;;;;125.97;25.88;;;1.90;99.90;;;;;;5017195;28;20034;-85
2022/01/16 02:10:25;;;;;;;99.20;23.38;;;1.90;99.90;;;;;;5002939;28;20039;-85
2022/01/16 02:13:00;;;;;;;95.95;22.17;;;1.90;99.90;;;;;;4986159;28;20432;-85
2022/01/16 02:33:05;;;;;;;90.25;23.10;;;1.90;99.90;;;;;;5015414;28;20456;-85
2022/01/16 02:34:45;;;;;;;95.95;22.38;;;2.00;99.90;;;;;;4989948;28;20443;-85
2022/01/16 02:37:14;;;;;;;101.13;23.73;;;1.90;99.90;;;;;;5015325;28;20353;-85
2022/01/16 02:39:44;;;;;;;88.22;19.23;;;1.90;99.90;;;;;;4996873;28;20133;-84
2022/01/16 02:42:12;;;;;;;89.10;21.10;;;2.00;99.90;;;;;;5004015;28;20043;-85
2022/01/16 02:44:49;;;;;;;83.57;21.35;;;1.90;99.90;;;;;;4983995;28;20042;-85
2022/01/16 02:47:17;;;;;;;105.47;25.27;;;2.00;99.90;;;;;;4989333;28;20497;-85
2022/01/16 02:49:47;;;;;;;95.57;22.20;;;2.00;99.90;;;;;;4997641;28;20035;-85
2022/01/16 02:52:16;;;;;;;87.47;22.58;;;2.00;99.90;;;;;;5001361;28;20045;-85
2022/01/16 02:54:44;;;;;;;96.43;22.83;;;2.00;99.90;;;;;;4998451;28;20041;-85
2022/01/16 02:57:12;;;;;;;98.85;22.55;;;2.00;99.90;;;;;;5000248;28;20375;-85
2022/01/16 02:59:40;;;;;;;101.65;23.63;;;2.00;99.90;;;;;;4969943;28;20053;-85
2022/01/16 03:02:06;;;;;;;95.38;21.83;;;2.00;99.90;;;;;;5012706;28;20496;-85
2022/01/16 03:04:32;;;;;;;101.10;22.80;;;2.00;99.90;;;;;;4982934;28;20045;-85
2022/01/16 03:07:01;;;;;;;113.97;24.83;;;2.10;99.90;;;;;;4983823;28;20624;-85
2022/01/16 03:09:34;;;;;;;103.90;24.30;;;2.00;99.90;;;;;;5013904;28;20389;-85
2022/01/16 03:12:01;;;;;;;92.25;23.13;;;2.00;99.90;;;;;;5002104;28;20124;-85
2022/01/16 03:14:27;;;;;;;92.68;25.17;;;2.10;99.90;;;;;;5015382;28;20451;-84
2022/01/16 03:16:53;;;;;;;83.85;24.30;;;2.10;99.90;;;;;;4997616;28;20034;-85
2022/01/16 03:22:05;;;;;;;68.00;18.75;;;2.20;99.90;;;;;;5017861;28;20043;-85
2022/01/16 03:24:37;;;;;;;79.97;21.05;;;2.20;99.90;;;;;;4989302;28;20136;-84
2022/01/16 03:27:08;;;;;;;84.93;24.40;;;2.20;99.90;;;;;;5002792;28;20030;-85
2022/01/16 03:29:34;;;;;;;84.90;22.90;;;2.20;99.90;;;;;;5011556;28;20537;-84
2022/01/16 03:32:02;;;;;;;83.97;22.25;;;2.30;99.90;;;;;;4970680;28;20133;-85
2022/01/16 03:34:28;;;;;;;83.55;24.08;;;2.30;99.90;;;;;;4998453;28;20214;-85
2022/01/16 03:36:54;;;;;;;87.90;22.25;;;2.40;99.90;;;;;;4980147;28;20468;-85
2022/01/16 03:39:20;;;;;;;82.00;22.40;;;2.30;99.90;;;;;;5014366;28;20070;-85
2022/01/16 03:41:46;;;;;;;85.35;21.60;;;2.40;99.90;;;;;;5000164;28;20057;-85
2022/01/16 03:44:12;;;;;;;83.60;23.08;;;2.40;99.90;;;;;;5017528;28;20034;-85
2022/01/16 03:46:41;;;;;;;85.78;23.98;;;2.40;99.90;;;;;;4979753;28;20093;-85
2022/01/16 03:49:10;;;;;;;84.15;21.95;;;2.40;99.90;;;;;;4985169;28;20042;-86
2022/01/16 03:51:37;;;;;;;78.40;23.70;;;2.40;99.90;;;;;;4995898;28;21503;-84
2022/01/16 03:54:05;;;;;;;85.80;22.23;;;2.50;99.90;;;;;;5011633;28;20065;-84
2022/01/16 03:56:31;;;;;;;78.15;22.30;;;2.50;99.90;;;;;;4977264;28;20085;-85
2022/01/16 03:58:56;;;;;;;83.68;24.00;;;2.50;99.90;;;;;;4980833;28;20526;-84
2022/01/16 04:01:24;;;;;;;83.72;22.90;;;2.50;99.90;;;;;;4981655;28;20049;-86
2022/01/16 04:03:50;;;;;;;76.57;24.52;;;2.50;99.90;;;;;;4994971;28;20030;-85
2022/01/16 04:06:16;;;;;;;86.65;23.55;;;2.50;99.90;;;;;;4996649;28;20045;-85
2022/01/16 04:08:42;;;;;;;81.65;23.52;;;2.50;99.90;;;;;;4995777;28;20050;-85
2022/01/16 04:11:08;;;;;;;98.47;26.17;;;2.50;99.90;;;;;;4995257;28;20072;-85
2022/01/16 04:13:34;;;;;;;79.28;23.73;;;2.60;99.90;;;;;;4983307;28;20133;-85
2022/01/16 04:15:59;;;;;;;80.50;22.85;;;2.60;99.90;;;;;;4997095;28;20495;-85
2022/01/16 04:18:25;;;;;;;81.10;23.90;;;2.60;99.90;;;;;;4999101;28;20130;-85
2022/01/16 04:20:51;;;;;;;81.47;24.05;;;2.60;99.90;;;;;;4993109;28;20045;-85
2022/01/16 04:23:16;;;;;;;86.53;23.88;;;2.60;99.90;;;;;;4997593;28;20142;-85
2022/01/16 04:25:42;;;;;;;81.05;25.00;;;2.70;99.90;;;;;;5000896;28;20117;-85
2022/01/16 04:28:08;;;;;;;71.07;21.55;;;2.70;99.90;;;;;;4996886;28;20039;-85
2022/01/16 04:30:34;;;;;;;73.78;20.65;;;2.70;99.90;;;;;;4962989;28;20039;-85
2022/01/16 04:33:00;;;;;;;87.97;24.42;;;2.70;99.90;;;;;;4981746;28;20050;-85
2022/01/16 04:35:26;;;;;;;82.38;23.65;;;2.70;99.90;;;;;;4979923;28;20607;-85
2022/01/16 04:37:51;;;;;;;66.07;19.67;;;2.80;99.90;;;;;;4982338;28;20527;-85
2022/01/16 04:40:18;;;;;;;74.05;22.15;;;2.80;99.90;;;;;;5012245;28;20478;-85
2022/01/16 04:45:28;;;;;;;81.30;22.27;;;2.80;99.90;;;;;;4985493;28;20039;-85
2022/01/16 04:47:55;;;;;;;78.45;23.98;;;2.80;99.90;;;;;;4981361;28;20290;-85
2022/01/16 04:50:22;;;;;;;91.10;24.83;;;2.80;99.90;;;;;;4986283;28;20046;-85
2022/01/16 04:52:49;;;;;;;79.97;24.17;;;2.80;99.90;;;;;;4979937;28;20121;-84
2022/01/16 04:55:16;;;;;;;78.35;22.63;;;2.90;99.90;;;;;;4996320;28;20447;-85
2022/01/16 04:57:42;;;;;;;76.22;22.65;;;2.90;99.90;;;;;;4996103;28;20196;-85
2022/01/16 05:00:12;;;;;;;85.45;25.08;;;2.90;99.90;;;;;;4997550;28;20532;-85
2022/01/16 05:02:38;;;;;;;81.43;23.88;;;2.90;99.90;;;;;;4999194;28;20042;-86
2022/01/16 05:05:04;;;;;;;79.72;23.77;;;2.90;99.90;;;;;;4998716;28;20424;-85
2022/01/16 05:07:30;;;;;;;83.80;24.75;;;2.90;99.90;;;;;;5013218;28;20162;-85
2022/01/16 05:09:55;;;;;;;83.03;23.70;;;2.90;99.90;;;;;;4983645;28;20133;-85
2022/01/16 05:12:30;;;;;;;81.85;22.83;;;2.90;99.90;;;;;;4980925;28;20055;-85
2022/01/16 05:17:40;;;;;;;99.70;25.73;;;2.90;99.90;;;;;;5015991;28;21035;-85
2022/01/16 05:20:05;;;;;;;85.22;23.00;;;3.00;99.90;;;;;;5015001;28;20112;-85
2022/01/16 05:22:31;;;;;;;103.97;28.15;;;3.00;99.90;;;;;;4996294;28;20050;-85
2022/01/16 05:24:57;;;;;;;90.03;25.52;;;3.00;99.90;;;;;;4995572;28;20043;-85
2022/01/16 05:27:22;;;;;;;99.20;27.13;;;3.00;99.90;;;;;;4999061;28;20042;-86
2022/01/16 05:29:48;;;;;;;99.28;25.27;;;3.00;99.90;;;;;;5014682;28;20419;-85
2022/01/16 05:32:16;;;;;;;99.63;25.17;;;3.10;99.90;;;;;;4998133;28;20076;-85
2022/01/16 05:34:41;;;;;;;95.40;25.30;;;3.10;99.90;;;;;;5008058;28;20062;-85
2022/01/16 05:37:07;;;;;;;90.82;24.83;;;3.10;99.90;;;;;;4986424;28;20047;-85
2022/01/16 05:39:34;;;;;;;98.60;25.48;;;3.10;99.90;;;;;;4969755;28;20049;-85
2022/01/16 05:42:00;;;;;;;102.47;25.80;;;3.10;99.90;;;;;;4985452;28;20149;-85
2022/01/16 05:44:26;;;;;;;102.93;27.02;;;3.10;99.90;;;;;;4983575;28;20041;-85
2022/01/16 05:46:51;;;;;;;97.78;27.70;;;3.10;99.90;;;;;;4989177;28;20050;-85
2022/01/16 05:49:17;;;;;;;89.72;25.15;;;3.10;99.90;;;;;;4980424;28;20047;-86
2022/01/16 05:51:43;;;;;;;95.05;23.63;;;3.10;99.90;;;;;;4999922;28;20128;-85
2022/01/16 05:54:08;;;;;;;99.18;26.20;;;3.20;99.90;;;;;;5015744;28;20106;-85
2022/01/16 05:56:34;;;;;;;87.57;24.45;;;3.20;99.90;;;;;;4986074;28;20104;-85
2022/01/16 05:59:00;;;;;;;95.70;26.40;;;3.20;99.90;;;;;;5000990;28;20046;-85
2022/01/16 06:01:25;;;;;;;86.32;24.02;;;3.20;99.90;;;;;;5003244;28;20038;-85
2022/01/16 06:03:51;;;;;;;103.45;28.95;;;3.20;99.90;;;;;;4984065;28;20035;-85
2022/01/16 06:06:17;;;;;;;109.45;25.83;;;3.30;99.90;;;;;;5012808;28;20351;-85
2022/01/16 06:08:43;;;;;;;92.28;27.13;;;3.30;99.90;;;;;;5003444;28;20515;-85
2022/01/16 06:11:08;;;;;;;85.38;21.10;;;3.30;99.90;;;;;;4989896;28;20054;-85
2022/01/16 06:13:34;;;;;;;90.20;25.20;;;3.30;99.90;;;;;;4989439;28;20050;-86
2022/01/16 06:16:02;;;;;;;89.47;26.38;;;3.30;99.90;;;;;;5000636;28;20035;-85
2022/01/16 06:18:27;;;;;;;90.60;24.95;;;3.40;99.90;;;;;;5002788;28;20405;-85
2022/01/16 06:20:53;;;;;;;104.20;26.20;;;3.40;99.90;;;;;;5000950;28;20035;-85
2022/01/16 06:23:19;;;;;;;89.07;25.30;;;3.40;99.90;;;;;;4989258;28;20042;-85
2022/01/16 06:25:44;;;;;;;111.82;29.45;;;3.40;99.90;;;;;;4983795;28;20030;-85
2022/01/16 06:28:10;;;;;;;93.18;27.35;;;3.40;99.90;;;;;;5001564;28;20034;-85
2022/01/16 06:30:36;;;;;;;106.70;26.00;;;3.40;99.90;;;;;;4985161;28;20044;-85
2022/01/16 06:33:05;;;;;;;102.85;27.17;;;3.40;99.90;;;;;;5018276;28;20057;-85
2022/01/16 06:35:31;;;;;;;87.10;24.92;;;3.50;99.90;;;;;;5002609;28;20150;-85
2022/01/16 06:37:56;;;;;;;107.03;27.45;;;3.50;99.90;;;;;;4988129;28;20128;-84
2022/01/16 06:40:22;;;;;;;107.13;28.27;;;3.50;99.90;;;;;;5017931;28;20132;-85
2022/01/16 06:42:48;;;;;;;106.88;26.52;;;3.50;99.90;;;;;;4992123;28;20039;-85
2022/01/16 06:45:14;;;;;;;109.80;27.88;;;3.50;99.90;;;;;;4998924;28;20110;-84
2022/01/16 06:47:39;;;;;;;98.90;27.17;;;3.60;99.90;;;;;;5002155;28;20425;-85
2022/01/16 06:50:07;;;;;;;105.38;26.65;;;3.60;99.90;;;;;;4986561;28;20144;-85
2022/01/16 06:52:33;;;;;;;85.38;21.90;;;3.60;99.90;;;;;;4986657;28;20043;-85
2022/01/16 06:54:58;;;;;;;96.25;26.90;;;3.60;99.90;;;;;;4998264;28;20108;-85
2022/01/16 06:57:24;;;;;;;106.70;27.15;;;3.60;99.90;;;;;;4993697;28;20047;-85
2022/01/16 06:59:50;;;;;;;99.95;27.95;;;3.60;99.90;;;;;;4965388;28;20042;-84
2022/01/16 07:02:18;;;;;;;102.93;30.75;;;3.60;99.90;;;;;;4997457;28;20039;-84
2022/01/16 07:04:47;;;;;;;92.85;26.02;;;3.70;99.90;;;;;;5013873;28;20117;-85
2022/01/16 07:07:12;;;;;;;96.60;29.48;;;3.70;99.90;;;;;;5016404;28;20045;-85
2022/01/16 07:09:39;;;;;;;100.00;29.88;;;3.70;99.90;;;;;;5014299;28;20458;-85
2022/01/16 07:12:05;;;;;;;100.57;29.23;;;3.70;99.90;;;;;;4983143;28;20043;-85
2022/01/16 07:14:31;;;;;;;104.88;27.02;;;3.80;99.90;;;;;;4998492;28;20042;-85
2022/01/16 07:16:57;;;;;;;88.50;28.17;;;3.80;99.90;;;;;;4977178;28;20121;-85
2022/01/16 07:19:22;;;;;;;101.30;27.42;;;3.80;99.90;;;;;;4985768;28;20051;-85
2022/01/16 07:21:48;;;;;;;97.68;29.27;;;3.80;99.90;;;;;;4982243;28;20125;-85
2022/01/16 07:24:15;;;;;;;90.85;27.48;;;3.80;99.90;;;;;;5002598;28;20405;-85
2022/01/16 07:26:45;;;;;;;93.57;28.08;;;3.80;99.90;;;;;;4984068;28;20042;-85
2022/01/16 07:29:10;;;;;;;106.10;27.20;;;3.80;99.90;;;;;;4985529;28;20042;-85
2022/01/16 07:31:38;;;;;;;94.60;27.92;;;3.80;99.90;;;;;;4961570;28;20042;-85
2022/01/16 07:34:05;;;;;;;96.78;27.92;;;3.80;99.90;;;;;;4996661;28;20376;-86
2022/01/16 07:36:31;;;;;;;95.43;28.02;;;3.80;99.90;;;;;;4995287;28;20507;-85
2022/01/16 07:38:56;;;;;;;91.72;27.92;;;3.80;99.90;;;;;;5002792;28;20113;-85
2022/01/16 07:41:22;;;;;;;81.60;27.02;;;3.80;99.90;;;;;;5000139;28;20096;-85
2022/01/16 07:43:48;;;;;;;98.70;28.65;;;3.80;99.90;;;;;;4964199;28;20041;-85
2022/01/16 07:46:13;;;;;;;85.75;26.70;;;3.90;99.90;;;;;;4983483;28;20038;-85
2022/01/16 07:48:39;;;;;;;86.85;27.00;;;3.90;99.90;;;;;;5000065;28;20049;-85
2022/01/16 07:51:04;;;;;;;91.15;26.98;;;3.90;99.90;;;;;;5013188;28;20151;-85
2022/01/16 07:53:30;;;;;;;87.45;27.50;;;3.90;99.90;;;;;;5012272;28;20129;-85
2022/01/16 07:55:56;;;;;;;87.65;27.73;;;4.00;99.90;;;;;;4981405;28;20078;-85
2022/01/16 07:58:21;;;;;;;90.55;28.05;;;4.00;99.90;;;;;;4997904;28;20053;-85
2022/01/16 08:00:47;;;;;;;78.00;24.83;;;4.00;99.90;;;;;;4996108;28;20108;-85
2022/01/16 08:03:12;;;;;;;77.43;25.15;;;4.10;99.90;;;;;;5009485;28;20044;-85
2022/01/16 08:05:38;;;;;;;81.18;27.10;;;4.10;99.90;;;;;;5001519;28;20041;-85
2022/01/16 08:08:04;;;;;;;86.63;26.77;;;4.10;99.90;;;;;;4996353;28;20046;-85
2022/01/16 08:10:30;;;;;;;80.18;27.25;;;4.10;99.90;;;;;;4993611;28;20053;-85
2022/01/16 08:12:58;;;;;;;76.47;24.77;;;4.10;99.90;;;;;;4996078;28;20399;-85
2022/01/16 08:15:23;;;;;;;71.65;25.17;;;4.10;99.90;;;;;;5014238;28;20057;-85
2022/01/16 08:17:49;;;;;;;75.00;24.13;;;4.10;99.90;;;;;;4983816;28;20043;-85
2022/01/16 08:20:15;;;;;;;70.90;25.13;;;4.10;99.90;;;;;;4994089;28;20038;-85
2022/01/16 08:22:40;;;;;;;71.68;24.33;;;4.20;99.90;;;;;;4983868;28;20125;-85
2022/01/16 08:25:07;;;;;;;68.18;23.42;;;4.20;99.90;;;;;;4994030;28;20042;-85
2022/01/16 08:27:33;;;;;;;65.15;25.58;;;4.20;99.90;;;;;;4981416;28;20053;-85
2022/01/16 08:29:58;;;;;;;64.47;24.02;;;4.30;99.90;;;;;;5014476;28;20046;-85
2022/01/16 08:32:24;;;;;;;71.30;24.95;;;4.30;99.90;;;;;;5011209;28;20088;-85
2022/01/16 08:34:50;;;;;;;68.57;25.25;;;4.40;99.90;;;;;;4993709;28;20496;-85
2022/01/16 08:37:15;;;;;;;60.17;24.48;;;4.40;99.90;;;;;;4997437;28;20046;-85
2022/01/16 08:39:41;;;;;;;60.10;23.27;;;4.40;99.90;;;;;;4977596;28;20080;-85
2022/01/16 08:42:07;;;;;;;60.30;23.85;;;4.40;99.90;;;;;;4979517;28;20038;-85
2022/01/16 08:44:32;;;;;;;64.15;23.10;;;4.40;99.90;;;;;;4976813;28;20034;-85
2022/01/16 08:46:58;;;;;;;63.08;23.17;;;4.40;99.90;;;;;;4992260;28;20045;-85
2022/01/16 08:49:24;;;;;;;62.13;23.67;;;4.40;99.90;;;;;;4996652;28;20046;-84
2022/01/16 08:51:49;;;;;;;63.33;24.52;;;4.50;99.90;;;;;;4996607;28;20057;-85
2022/01/16 08:54:15;;;;;;;60.00;24.08;;;4.50;99.90;;;;;;4994380;28;20129;-86
2022/01/16 08:56:41;;;;;;;56.03;24.25;;;4.50;99.90;;;;;;4994049;28;20065;-85
2022/01/16 08:59:07;;;;;;;53.47;22.00;;;4.50;99.90;;;;;;4996084;28;20101;-86
2022/01/16 09:01:33;;;;;;;54.53;23.05;;;4.50;99.90;;;;;;4969334;28;20038;-85
2022/01/16 09:03:58;;;;;;;53.60;21.70;;;4.50;99.90;;;;;;5000475;28;20049;-85
2022/01/16 09:06:24;;;;;;;59.00;24.75;;;4.50;99.90;;;;;;4979706;28;20126;-85
2022/01/16 09:08:50;;;;;;;49.63;20.48;;;4.50;99.90;;;;;;4987113;28;20045;-85
2022/01/16 09:11:15;;;;;;;60.38;23.10;;;4.50;99.90;;;;;;4980724;28;20049;-85
2022/01/16 09:13:41;;;;;;;57.08;22.48;;;4.60;99.90;;;;;;5003655;28;20044;-86
2022/01/16 09:16:08;;;;;;;47.60;21.73;;;4.50;99.90;;;;;;5002172;28;20061;-86
2022/01/16 09:18:34;;;;;;;54.88;22.35;;;4.60;99.90;;;;;;5001481;28;20594;-86
2022/01/16 09:21:01;;;;;;;55.60;22.27;;;4.60;99.90;;;;;;5001103;28;21872;-85
2022/01/16 09:23:28;;;;;;;56.63;23.08;;;4.60;99.90;;;;;;5002312;28;20082;-85
2022/01/16 09:25:53;;;;;;;56.42;23.38;;;4.60;99.90;;;;;;5005815;28;20145;-85
2022/01/16 09:28:19;;;;;;;51.95;23.52;;;4.60;99.90;;;;;;5002736;28;20153;-85
2022/01/16 09:30:44;;;;;;;50.40;21.63;;;4.60;99.90;;;;;;4998379;28;20043;-85
2022/01/16 09:33:10;;;;;;;52.65;22.77;;;4.70;99.90;;;;;;4985746;28;20077;-85
2022/01/16 09:35:36;;;;;;;44.90;22.05;;;4.70;99.90;;;;;;5018427;28;20053;-85
2022/01/16 09:38:03;;;;;;;51.80;22.63;;;4.70;99.90;;;;;;5002701;28;21479;-85
2022/01/16 09:40:29;;;;;;;45.05;20.42;;;4.70;99.90;;;;;;4987400;28;20088;-85
2022/01/16 09:42:56;;;;;;;50.20;22.73;;;4.70;99.90;;;;;;5003658;28;20039;-85
2022/01/16 09:45:21;;;;;;;44.80;21.05;;;4.70;99.90;;;;;;5002086;28;20038;-85
2022/01/16 09:47:48;;;;;;;44.35;20.63;;;4.70;99.90;;;;;;5003824;28;20398;-85
2022/01/16 09:50:20;;;;;;;44.22;21.00;;;4.70;99.90;;;;;;4986052;28;20043;-85
2022/01/16 09:52:48;;;;;;;46.75;21.10;;;4.70;99.90;;;;;;5014288;28;20404;-85
2022/01/16 09:55:14;;;;;;;43.63;22.02;;;4.80;99.90;;;;;;5016555;28;20048;-85
2022/01/16 09:57:40;;;;;;;41.55;18.35;;;4.80;99.90;;;;;;4994765;28;20472;-85
2022/01/16 10:00:10;;;;;;;39.40;18.42;;;4.90;99.90;;;;;;4977810;28;20411;-84
2022/01/16 10:02:35;;;;;;;39.00;18.35;;;4.90;99.90;;;;;;4999475;28;20093;-85
2022/01/16 10:05:01;;;;;;;37.13;16.70;;;5.00;99.90;;;;;;5002653;28;20034;-85
2022/01/16 10:07:27;;;;;;;34.25;16.00;;;5.00;99.90;;;;;;4987350;28;20054;-85
2022/01/16 10:10:10;;;;;;;30.30;15.00;;;5.10;99.90;;;;;;4982087;28;20049;-85
2022/01/16 10:12:41;;;;;;;29.65;14.23;;;5.20;99.90;;;;;;4983771;28;20049;-85
2022/01/16 10:15:25;;;;;;;29.30;14.55;;;5.20;99.90;;;;;;5012138;28;20041;-84
2022/01/16 10:17:56;;;;;;;28.35;13.30;;;5.20;99.90;;;;;;4997378;28;20096;-85
2022/01/16 10:20:23;;;;;;;27.50;12.55;;;5.30;99.90;;;;;;4989493;28;20049;-84
2022/01/16 10:22:51;;;;;;;30.75;13.90;;;5.40;99.90;;;;;;4997477;28;20085;-84
2022/01/16 10:25:38;;;;;;;26.80;12.73;;;5.40;99.90;;;;;;4992587;28;20053;-85
2022/01/16 10:28:15;;;;;;;26.20;12.60;;;5.50;99.90;;;;;;5007824;28;20046;-84
2022/01/16 10:30:44;;;;;;;21.58;11.32;;;5.50;99.90;;;;;;5019159;28;20057;-84
2022/01/16 10:33:16;;;;;;;24.48;11.40;;;5.50;99.90;;;;;;4996485;28;20058;-85
2022/01/16 10:35:44;;;;;;;22.17;10.27;;;5.60;99.90;;;;;;5014721;28;20069;-84
2022/01/16 10:38:15;;;;;;;23.77;10.65;;;5.60;99.90;;;;;;4982604;28;20046;-85
2022/01/16 10:40:41;;;;;;;22.50;10.68;;;5.70;99.90;;;;;;4987149;28;20053;-85
2022/01/16 10:43:13;;;;;;;16.63;9.45;;;5.70;99.90;;;;;;5014285;28;20049;-85
2022/01/16 10:45:40;;;;;;;20.15;10.32;;;5.70;99.90;;;;;;4997452;28;20045;-84
2022/01/16 10:48:07;;;;;;;20.30;9.05;;;5.80;99.90;;;;;;5010933;28;20038;-84
2022/01/16 10:50:45;;;;;;;20.33;9.75;;;5.80;99.90;;;;;;4994521;28;20548;-84
2022/01/16 10:53:19;;;;;;;21.55;9.65;;;5.80;99.90;;;;;;5017800;28;20042;-84
2022/01/16 10:55:51;;;;;;;22.40;9.80;;;5.90;99.90;;;;;;4985138;28;20051;-84
2022/01/16 10:58:38;;;;;;;21.38;9.85;;;5.90;99.90;;;;;;4994626;28;20065;-84
2022/01/16 11:01:13;;;;;;;18.20;9.00;;;5.90;99.90;;;;;;4997791;28;20042;-84
2022/01/16 11:03:45;;;;;;;26.63;9.75;;;5.90;99.90;;;;;;4983082;28;20046;-84
2022/01/16 11:06:11;;;;;;;17.67;8.47;;;5.90;99.90;;;;;;5002217;28;20411;-85
2022/01/16 11:08:38;;;;;;;17.92;8.25;;;5.90;99.90;;;;;;4995851;28;20045;-85
2022/01/16 11:11:06;;;;;;;17.73;8.20;;;5.90;99.90;;;;;;4983668;28;20101;-85
2022/01/16 11:13:34;;;;;;;18.65;9.25;;;5.90;99.90;;;;;;4981835;28;20077;-84
2022/01/16 11:16:03;;;;;;;17.83;8.30;;;6.00;99.90;;;;;;4998133;28;20042;-85
2022/01/16 11:18:30;;;;;;;14.60;7.68;;;6.00;99.90;;;;;;4978240;28;20064;-85
2022/01/16 11:21:08;;;;;;;16.50;8.25;;;6.10;99.90;;;;;;5012686;28;20042;-85
2022/01/16 11:23:48;;;;;;;15.35;7.70;;;6.10;99.90;;;;;;4978811;28;20519;-85
2022/01/16 11:26:16;;;;;;;17.55;8.23;;;6.10;99.90;;;;;;4997152;28;20038;-85
2022/01/16 11:28:42;;;;;;;16.88;7.70;;;6.10;99.90;;;;;;4968082;28;20200;-85
2022/01/16 11:31:10;;;;;;;17.30;6.88;;;6.10;99.90;;;;;;5014393;28;20034;-84
2022/01/16 11:33:37;;;;;;;16.77;6.18;;;6.10;99.90;;;;;;4980828;28;20646;-84
2022/01/16 11:36:04;;;;;;;12.60;5.72;;;6.20;99.90;;;;;;4984098;28;20559;-84
2022/01/16 11:38:44;;;;;;;16.95;5.90;;;6.30;99.90;;;;;;4983321;28;20045;-85
2022/01/16 11:41:27;;;;;;;12.32;4.50;;;6.40;99.90;;;;;;4969895;28;20049;-84
2022/01/16 11:43:53;;;;;;;;;;;6.50;99.90;;;;;;5012345;28;20072;-85
2022/01/16 11:46:24;;;;;;;11.73;4.57;;;6.50;99.90;;;;;;5018854;28;20563;-84
2022/01/16 11:49:06;;;;;;;14.40;5.18;;;6.60;99.90;;;;;;4998202;28;20042;-84
2022/01/16 11:51:35;;;;;;;12.18;4.80;;;6.70;99.90;;;;;;4983868;28;20108;-84
2022/01/16 11:54:09;;;;;;;9.15;4.55;;;6.80;99.90;;;;;;4978433;28;20046;-85
2022/01/16 11:56:41;;;;;;;12.95;5.13;;;6.80;99.90;;;;;;4966039;28;20121;-85
2022/01/16 11:59:19;;;;;;;12.07;4.43;;;6.90;99.90;;;;;;4985443;28;20043;-85
2022/01/16 12:01:47;;;;;;;13.98;4.80;;;6.90;99.90;;;;;;5000169;28;20051;-85
2022/01/16 12:04:28;;;;;;;15.90;5.20;;;6.90;99.90;;;;;;4998971;28;20554;-86
2022/01/16 12:07:17;;;;;;;12.50;4.60;;;6.90;99.90;;;;;;4994493;28;20041;-86
2022/01/16 12:12:14;;;;;;;11.52;4.82;;;7.00;99.90;;;;;;4991832;28;20046;-86
2022/01/16 12:15:01;;;;;;;12.20;4.45;;;7.10;99.90;;;;;;5014554;28;20045;-86
2022/01/16 12:17:38;;;;;;;10.73;4.90;;;7.10;99.90;;;;;;4977080;28;20042;-86
2022/01/16 12:20:13;;;;;;;12.63;4.40;;;7.10;99.90;;;;;;4982811;28;20112;-86
2022/01/16 12:22:46;;;;;;;11.20;4.40;;;7.10;99.90;;;;;;5000726;28;20049;-86
2022/01/16 12:25:26;;;;;;;11.65;4.57;;;7.10;99.90;;;;;;4980871;28;20084;-86
2022/01/16 12:28:00;;;;;;;13.52;4.35;;;7.20;99.90;;;;;;5016454;28;20554;-86
2022/01/16 12:30:32;;;;;;;12.18;4.55;;;7.10;99.90;;;;;;5013010;28;20049;-86
2022/01/16 12:33:11;;;;;;;9.88;4.50;;;7.10;99.90;;;;;;4998180;28;20034;-86
2022/01/16 12:35:46;;;;;;;13.65;4.43;;;7.10;99.90;;;;;;5017200;28;20042;-87
2022/01/16 12:38:13;;;;;;;10.48;4.43;;;7.10;99.90;;;;;;4977880;28;20684;-86
2022/01/16 12:40:40;;;;;;;11.35;4.22;;;7.10;99.90;;;;;;4975557;28;20092;-86
2022/01/16 12:43:10;;;;;;;11.35;4.43;;;7.10;99.90;;;;;;4997406;28;20063;-86
2022/01/16 12:45:37;;;;;;;12.88;4.32;;;7.20;99.90;;;;;;4983063;28;20481;-86
2022/01/16 12:48:04;;;;;;;12.00;4.20;;;7.20;99.90;;;;;;4984709;28;20421;-86
2022/01/16 12:50:29;;;;;;;11.63;4.10;;;7.20;99.90;;;;;;4990462;28;20038;-86
2022/01/16 12:52:55;;;;;;;15.43;4.65;;;7.20;99.90;;;;;;4997639;28;20134;-86
2022/01/16 12:55:28;;;;;;;12.77;3.65;;;7.20;99.90;;;;;;5000942;28;20098;-86
2022/01/16 12:57:54;;;;;;;14.00;4.30;;;7.20;99.90;;;;;;5017733;28;20402;-86
2022/01/16 13:00:20;;;;;;;10.20;4.63;;;7.20;99.90;;;;;;4987239;28;20053;-86
2022/01/16 13:02:53;;;;;;;11.73;4.45;;;7.20;99.90;;;;;;4996619;28;20444;-86
2022/01/16 13:05:21;;;;;;;10.25;4.05;;;7.30;99.90;;;;;;4990010;28;20038;-86
2022/01/16 13:07:47;;;;;;;9.70;3.95;;;7.20;99.90;;;;;;5013976;28;20424;-86
2022/01/16 13:10:13;;;;;;;11.35;3.75;;;7.20;99.90;;;;;;4996991;28;20061;-86
2022/01/16 13:12:38;;;;;;;13.25;4.40;;;7.20;99.90;;;;;;5022076;28;20172;-86
2022/01/16 13:15:04;;;;;;;11.63;5.38;;;7.20;99.90;;;;;;4984858;28;20097;-86
2022/01/16 13:17:34;;;;;;;10.50;4.70;;;7.20;99.90;;;;;;4998208;28;21208;-86
2022/01/16 13:20:02;;;;;;;15.27;5.25;;;7.20;99.90;;;;;;5004690;28;20065;-86
2022/01/16 13:22:30;;;;;;;11.15;4.40;;;7.20;99.90;;;;;;4990303;28;20129;-86